This demonstration page uses our WeatherBlox Daily Observations layout. Learn more.

41.86663, -103.66717

Hourly Observations for August 25, 2020

Temp ( °F °C ) Dew Point ( °F °C ) Humidity (%) Winds ( mph kmh ) Pressure ( in mb ) Visibility ( mi km ) Precip ( " mm )
12:53 am 00:53 Clear 67 19.4 58 14.4 73 73 Calm 29.83 1010 10 16.0934 0 0
1:53 am 01:53 Clear 65 18.3 57 13.9 76 76 NW 5 7 29.81 1010 10 16.0934 0 0
2:53 am 02:53 Clear 63 17.2 57 13.9 81 81 SW 5 7 29.82 1010 10 16.0934 0 0
3:53 am 03:53 Clear 63 17.2 57 13.9 81 81 E 7 11 29.8 1009 10 16.0934 0 0
4:53 am 04:53 Clear 63 17.2 57 13.9 81 81 Calm 29.8 1009 10 16.0934 0 0
5:53 am 05:53 Clear 61 16.1 56 13.3 84 84 E 3 6 29.83 1010 10 16.0934 0 0
6:53 am 06:53 Sunny 62 16.7 55 12.8 78 78 undefined N/A 29.84 1011 10 16.0934 0 0
7:53 am 07:53 Sunny 68 20 56 13.3 65 65 Calm 29.84 1011 10 16.0934 0 0
8:53 am 08:53 Sunny 74 23.3 57 13.9 56 56 Calm 29.85 1011 10 16.0934 0 0
9:53 am 09:53 Sunny 80 26.7 58 14.4 47 47 VRB 3 6 29.83 1010 9 14.48406 0 0
10:53 am 10:53 Sunny 88 31.1 55 12.8 33 33 VRB 6 9 29.82 1010 10 16.0934 0 0
11:53 am 11:53 Sunny 94 34.4 51 10.6 23 23 VRB 5 7 29.8 1009 10 16.0934 0 0
12:53 pm 12:53 Sunny 96 35.6 51 10.6 22 22 undefined N/A 29.78 1009 10 16.0934 0 0
1:53 pm 13:53 Sunny 100 37.8 46 7.8 16 16 VRB 3 6 29.76 1008 10 16.0934 0 0
2:53 pm 14:53 Sunny 101 38.3 45 7.2 15 15 VRB 6 9 29.74 1007 10 16.0934 0 0
3:53 pm 15:53 Sunny 101 38.3 44 6.7 14 14 VRB 3 6 29.72 1007 10 16.0934 0 0
4:53 pm 16:53 Sunny 101 38.3 44 6.7 14 14 S 6 9 29.7 1006 10 16.0934 0 0
5:53 pm 17:53 Sunny 100 37.8 46 7.8 16 16 SE 8 13 29.7 1006 10 16.0934 0 0
6:53 pm 18:53 Sunny 94 34.4 49 9.4 21 21 SSE 5 7 29.71 1006 10 16.0934 0 0
7:53 pm 19:53 Clear 88 31.1 49 9.4 26 26 W 3 6 29.72 1006 10 16.0934 0 0
8:53 pm 20:53 Clear 81 27.2 56 13.3 42 42 ENE 6 9 29.73 1007 10 16.0934 0 0
9:53 pm 21:53 Clear 79 26.1 55 12.8 44 44 N 5 7 29.72 1006 10 16.0934 0 0
10:53 pm 22:53 Clear 78 25.6 55 12.8 45 45 VRB 6 9 29.73 1007 10 16.0934 0 0
11:53 pm 23:53 Clear 78 25.6 54 12.2 43 43 NNE 5 7 29.72 1007 10 16.0934 0 0

Powered by AerisWeather